createdAt,value
2018-03-10T00:00:51.664Z,20.60
2018-03-10T00:03:20.094Z,18.50
2018-03-10T00:05:48.939Z,17.60
2018-03-10T00:08:17.392Z,17.93
2018-03-10T00:10:45.842Z,15.90
2018-03-10T00:13:15.647Z,17.00
2018-03-10T00:15:44.099Z,18.60
2018-03-10T00:18:12.824Z,16.20
2018-03-10T00:20:41.655Z,17.40
2018-03-10T00:23:10.092Z,16.20
2018-03-10T00:25:38.928Z,17.97
2018-03-10T00:28:07.361Z,17.10
2018-03-10T00:30:36.208Z,17.47
2018-03-10T00:33:04.691Z,18.30
2018-03-10T00:35:33.114Z,15.93
2018-03-10T00:38:01.974Z,16.87
2018-03-10T00:40:30.425Z,16.70
2018-03-10T00:42:58.868Z,17.60
2018-03-10T00:45:27.704Z,16.07
2018-03-10T00:47:56.162Z,15.23
2018-03-10T00:50:24.640Z,15.20
2018-03-10T00:52:53.068Z,15.13
2018-03-10T00:55:21.530Z,15.00
2018-03-10T00:57:49.977Z,16.30
2018-03-10T01:00:18.419Z,18.57
2018-03-10T01:02:46.851Z,15.50
2018-03-10T01:05:15.302Z,15.50
2018-03-10T01:07:44.147Z,14.90
2018-03-10T01:10:12.593Z,14.57
2018-03-10T01:12:41.037Z,13.83
2018-03-10T01:15:09.476Z,15.83
2018-03-10T01:17:37.920Z,15.20
2018-03-10T01:20:06.362Z,15.33
2018-03-10T01:22:34.805Z,15.17
2018-03-10T01:25:03.263Z,15.93
2018-03-10T01:27:31.714Z,14.87
2018-03-10T01:30:00.163Z,14.40
2018-03-10T01:32:28.638Z,13.87
2018-03-10T01:34:57.097Z,14.50
2018-03-10T01:37:25.554Z,16.23
2018-03-10T01:39:54.396Z,13.63
2018-03-10T01:42:22.864Z,14.30
2018-03-10T01:44:51.296Z,13.67
2018-03-10T01:47:19.745Z,15.27
2018-03-10T01:49:48.216Z,15.10
2018-03-10T01:52:16.680Z,14.30
2018-03-10T01:54:45.116Z,12.90
2018-03-10T01:57:13.568Z,15.07
2018-03-10T01:59:42.014Z,15.43
2018-03-10T02:02:10.479Z,14.10
2018-03-10T02:04:38.927Z,14.97
2018-03-10T02:07:07.371Z,14.80
2018-03-10T02:09:35.825Z,15.43
2018-03-10T02:12:04.283Z,14.77
2018-03-10T02:14:33.142Z,17.43
2018-03-10T02:17:01.615Z,15.30
2018-03-10T02:19:30.071Z,14.33
2018-03-10T02:21:58.534Z,15.97
2018-03-10T02:24:27.368Z,15.50
2018-03-10T02:26:55.829Z,14.77
2018-03-10T02:29:24.286Z,17.60
2018-03-10T02:31:52.739Z,16.50
2018-03-10T02:34:21.603Z,16.40
2018-03-10T02:36:50.060Z,16.73
2018-03-10T02:39:18.496Z,18.13
2018-03-10T02:41:46.984Z,17.23
2018-03-10T02:44:15.815Z,18.00
2018-03-10T02:46:44.269Z,18.07
2018-03-10T02:49:13.109Z,18.20
2018-03-10T02:51:41.581Z,18.23
2018-03-10T02:54:10.057Z,17.93
2018-03-10T02:56:38.528Z,17.83
2018-03-10T02:59:06.960Z,17.80
2018-03-10T03:01:35.414Z,19.13
2018-03-10T03:04:03.891Z,18.37
2018-03-10T03:06:32.344Z,18.57
2018-03-10T03:09:00.784Z,18.63
2018-03-10T03:11:29.232Z,18.03
2018-03-10T03:13:57.681Z,19.97
2018-03-10T03:16:26.146Z,17.77
2018-03-10T03:18:54.987Z,17.80
2018-03-10T03:21:23.440Z,17.83
2018-03-10T03:23:51.876Z,18.60
2018-03-10T03:26:20.712Z,18.37
2018-03-10T03:28:49.165Z,18.00
2018-03-10T03:31:18.033Z,18.27
2018-03-10T03:33:46.464Z,16.10
2018-03-10T03:36:14.918Z,18.00
2018-03-10T03:38:43.376Z,16.40
2018-03-10T03:41:11.816Z,14.50
2018-03-10T03:43:40.263Z,15.70
2018-03-10T03:46:08.711Z,16.47
2018-03-10T03:48:37.145Z,15.43
2018-03-10T03:51:05.602Z,16.97
2018-03-10T03:53:34.048Z,14.17
2018-03-10T03:56:02.502Z,14.17
2018-03-10T03:58:30.955Z,14.20
2018-03-10T04:00:59.450Z,13.80
2018-03-10T04:03:27.890Z,13.33
2018-03-10T04:05:56.728Z,13.73
2018-03-10T04:08:25.159Z,13.00
2018-03-10T04:10:54.003Z,13.10
2018-03-10T04:13:22.461Z,13.60
2018-03-10T04:15:50.916Z,13.10
2018-03-10T04:18:19.740Z,13.53
2018-03-10T04:20:48.182Z,13.67
2018-03-10T04:23:17.213Z,13.10
2018-03-10T04:25:45.647Z,14.00
2018-03-10T04:28:14.088Z,14.33
2018-03-10T04:30:42.523Z,13.53
2018-03-10T04:33:11.037Z,14.20
2018-03-10T04:35:39.519Z,12.67
2018-03-10T04:38:07.969Z,13.87
2018-03-10T04:40:36.908Z,14.80
2018-03-10T04:43:05.351Z,12.93
2018-03-10T04:45:33.797Z,12.83
2018-03-10T04:48:02.219Z,12.80
2018-03-10T04:50:30.656Z,13.60
2018-03-10T04:52:59.094Z,12.80
2018-03-10T04:55:27.536Z,13.47
2018-03-10T04:57:56.762Z,13.53
2018-03-10T05:00:25.195Z,13.30
2018-03-10T05:02:53.611Z,13.30
2018-03-10T05:05:22.048Z,14.07
2018-03-10T05:07:50.483Z,14.03
2018-03-10T05:10:18.912Z,13.23
2018-03-10T05:12:47.346Z,13.60
2018-03-10T05:15:15.775Z,13.30
2018-03-10T05:17:44.206Z,13.43
2018-03-10T05:20:12.684Z,13.07
2018-03-10T05:22:41.134Z,14.00
2018-03-10T05:25:09.960Z,14.40
2018-03-10T05:27:38.469Z,15.30
2018-03-10T05:30:06.907Z,17.07
2018-03-10T05:32:35.331Z,17.80
2018-03-10T05:35:03.795Z,17.63
2018-03-10T05:37:32.233Z,18.53
2018-03-10T05:40:01.064Z,15.93
2018-03-10T05:42:29.499Z,19.10
2018-03-10T05:44:58.342Z,18.40
2018-03-10T05:47:26.910Z,18.57
2018-03-10T05:49:55.348Z,18.20
2018-03-10T05:52:24.298Z,20.30
2018-03-10T05:54:52.731Z,19.30
2018-03-10T05:57:21.343Z,20.90
2018-03-10T05:59:49.824Z,18.93
2018-03-10T06:02:18.265Z,20.47
2018-03-10T06:04:47.096Z,20.23
2018-03-10T06:07:15.531Z,18.73
2018-03-10T06:09:43.962Z,19.50
2018-03-10T06:12:12.431Z,19.77
2018-03-10T06:14:40.856Z,20.37
2018-03-10T06:17:09.409Z,21.23
2018-03-10T06:19:37.847Z,19.30
2018-03-10T06:22:06.772Z,18.33
2018-03-10T06:24:35.198Z,21.30
2018-03-10T06:27:03.731Z,19.20
2018-03-10T06:29:32.211Z,20.00
2018-03-10T06:32:00.690Z,19.07
2018-03-10T06:34:29.119Z,19.37
2018-03-10T06:36:57.547Z,20.17
2018-03-10T06:39:26.033Z,18.53
2018-03-10T06:41:54.470Z,19.90
2018-03-10T06:44:22.970Z,19.77
2018-03-10T06:46:51.786Z,18.73
2018-03-10T06:49:20.224Z,19.37
2018-03-10T06:51:49.062Z,19.80
2018-03-10T06:54:17.500Z,19.90
2018-03-10T06:56:46.331Z,18.93
2018-03-10T06:59:14.759Z,20.13
2018-03-10T07:01:43.196Z,19.43
2018-03-10T07:04:11.661Z,20.80
2018-03-10T07:06:40.147Z,19.23
2018-03-10T07:09:08.622Z,18.67
2018-03-10T07:11:37.110Z,19.20
2018-03-10T07:14:05.546Z,20.03
2018-03-10T07:16:34.087Z,21.00
2018-03-10T07:19:02.526Z,20.10
2018-03-10T07:21:31.355Z,18.87
2018-03-10T07:23:59.779Z,20.67
2018-03-10T07:26:28.323Z,20.27
2018-03-10T07:28:56.758Z,19.00
2018-03-10T07:31:25.581Z,20.00
2018-03-10T07:33:54.892Z,20.30
2018-03-10T07:36:23.334Z,21.10
2018-03-10T07:38:51.761Z,19.07
2018-03-10T07:41:20.193Z,19.23
2018-03-10T07:43:49.011Z,18.20
2018-03-10T07:46:17.456Z,17.70
2018-03-10T07:48:46.288Z,19.60
2018-03-10T07:51:14.758Z,19.17
2018-03-10T07:53:43.189Z,19.87
2018-03-10T07:56:11.723Z,19.80
2018-03-10T07:58:40.208Z,21.23
2018-03-10T08:01:08.704Z,23.10
2018-03-10T08:03:37.157Z,21.83
2018-03-10T08:06:05.597Z,22.00
2018-03-10T08:08:34.414Z,20.17
2018-03-10T08:11:02.842Z,20.80
2018-03-10T08:13:31.302Z,23.33
2018-03-10T08:15:59.735Z,20.87
2018-03-10T08:20:35.055Z,21.87
2018-03-10T08:23:03.480Z,23.87
2018-03-10T08:25:32.327Z,21.43
2018-03-10T08:28:00.757Z,21.80
2018-03-10T08:30:29.180Z,21.70
2018-03-10T08:32:57.571Z,23.13
2018-03-10T08:35:25.934Z,23.60
2018-03-10T08:37:54.319Z,27.03
2018-03-10T08:40:22.696Z,23.90
2018-03-10T08:42:51.042Z,23.70
2018-03-10T08:45:19.408Z,25.80
2018-03-10T08:47:48.152Z,28.87
2018-03-10T08:50:16.634Z,25.40
2018-03-10T08:52:44.982Z,25.40
2018-03-10T08:55:13.394Z,26.90
2018-03-10T08:57:41.747Z,26.70
2018-03-10T09:00:10.105Z,24.77
2018-03-10T09:02:38.449Z,30.30
2018-03-10T09:05:06.859Z,28.73
2018-03-10T09:07:35.285Z,29.03
2018-03-10T09:10:03.748Z,25.83
2018-03-10T09:12:32.135Z,23.03
2018-03-10T09:15:01.144Z,23.43
2018-03-10T09:17:29.516Z,23.27
2018-03-10T09:19:57.883Z,21.07
2018-03-10T09:22:26.236Z,24.73
2018-03-10T09:24:54.629Z,23.77
2018-03-10T09:27:22.974Z,26.00
2018-03-10T09:29:51.773Z,22.80
2018-03-10T09:32:20.596Z,22.70
2018-03-10T09:34:48.947Z,22.00
2018-03-10T09:37:17.364Z,21.43
2018-03-10T09:39:45.699Z,23.07
2018-03-10T09:42:14.519Z,21.50
2018-03-10T09:44:42.922Z,23.03
2018-03-10T09:47:11.256Z,22.83
2018-03-10T09:49:39.655Z,22.83
2018-03-10T09:52:08.009Z,20.60
2018-03-10T09:54:36.418Z,21.53
2018-03-10T09:57:04.799Z,21.60
2018-03-10T09:59:33.160Z,20.97
2018-03-10T10:02:01.520Z,30.83
2018-03-10T10:04:29.947Z,21.70
2018-03-10T10:06:58.311Z,22.30
2018-03-10T10:09:26.696Z,21.00
2018-03-10T10:11:55.042Z,23.77
2018-03-10T10:14:23.397Z,23.63
2018-03-10T10:16:52.232Z,21.40
2018-03-10T10:19:20.597Z,20.93
2018-03-10T10:21:48.959Z,21.97
2018-03-10T10:24:17.703Z,24.43
2018-03-10T10:26:46.163Z,22.23
2018-03-10T10:29:14.522Z,25.10
2018-03-10T10:31:42.929Z,23.80
2018-03-10T10:34:11.276Z,24.40
2018-03-10T10:36:39.635Z,21.63
2018-03-10T10:39:08.031Z,23.37
2018-03-10T10:41:36.448Z,23.10
2018-03-10T10:44:04.808Z,23.07
2018-03-10T10:46:33.179Z,24.47
2018-03-10T10:49:01.574Z,24.37
2018-03-10T10:51:29.950Z,25.60
2018-03-10T10:53:58.330Z,24.33
2018-03-10T10:56:26.721Z,23.70
2018-03-10T10:58:55.079Z,24.10
2018-03-10T11:01:24.593Z,23.53
2018-03-10T11:03:52.963Z,23.67
2018-03-10T11:06:21.700Z,24.20
2018-03-10T11:08:50.298Z,24.13
2018-03-10T11:11:20.342Z,24.70
2018-03-10T11:13:48.989Z,25.13
2018-03-10T11:16:18.113Z,24.73
2018-03-10T11:18:46.861Z,23.90
2018-03-10T11:21:15.290Z,24.43
2018-03-10T11:23:45.234Z,24.80
2018-03-10T11:26:13.666Z,25.70
2018-03-10T11:28:42.557Z,24.77
2018-03-10T11:31:10.931Z,24.30
2018-03-10T11:33:39.684Z,24.20
2018-03-10T11:36:08.088Z,23.80
2018-03-10T11:38:36.545Z,23.80
2018-03-10T11:41:05.229Z,24.00
2018-03-10T11:43:33.729Z,24.07
2018-03-10T11:46:02.951Z,26.37
2018-03-10T11:48:33.360Z,23.50
2018-03-10T11:51:02.144Z,25.40
2018-03-10T11:53:31.595Z,23.83
2018-03-10T11:56:01.193Z,24.57
2018-03-10T11:58:29.610Z,25.90
2018-03-10T12:00:58.190Z,26.83
2018-03-10T12:03:26.633Z,26.30
2018-03-10T12:05:55.270Z,24.37
2018-03-10T12:08:23.809Z,22.93
2018-03-10T12:10:53.223Z,25.20
2018-03-10T12:13:25.525Z,25.43
2018-03-10T12:15:53.911Z,24.50
2018-03-10T12:18:22.690Z,26.20
2018-03-10T12:20:51.134Z,24.33
2018-03-10T12:23:20.501Z,24.43
2018-03-10T12:25:50.436Z,25.10
2018-03-10T12:28:18.880Z,24.27
2018-03-10T12:30:48.602Z,24.43
2018-03-10T12:33:17.574Z,25.10
2018-03-10T12:35:46.052Z,26.13
2018-03-10T12:38:14.730Z,24.80
2018-03-10T12:40:43.235Z,24.03
2018-03-10T12:43:12.686Z,24.30
2018-03-10T12:45:41.086Z,23.27
2018-03-10T12:48:09.491Z,22.30
2018-03-10T12:50:38.277Z,22.63
2018-03-10T12:53:07.540Z,23.77
2018-03-10T12:55:35.916Z,24.00
2018-03-10T12:58:04.308Z,24.90
2018-03-10T13:00:33.104Z,22.80
2018-03-10T13:03:01.588Z,24.70
2018-03-10T13:05:30.423Z,23.50
2018-03-10T13:07:59.853Z,23.47
2018-03-10T13:10:28.240Z,25.20
2018-03-10T13:12:56.747Z,24.30
2018-03-10T13:15:25.251Z,24.10
2018-03-10T13:17:53.952Z,23.87
2018-03-10T13:20:23.005Z,27.60
2018-03-10T13:22:51.434Z,21.83
2018-03-10T13:25:21.266Z,23.60
2018-03-10T13:27:49.645Z,23.40
2018-03-10T13:30:18.873Z,25.47
2018-03-10T13:32:48.009Z,24.13
2018-03-10T13:35:17.643Z,22.47
2018-03-10T13:37:46.116Z,22.60
2018-03-10T13:40:14.492Z,23.87
2018-03-10T13:42:44.062Z,22.80
2018-03-10T13:45:12.531Z,22.63
2018-03-10T13:47:40.875Z,24.33
2018-03-10T13:50:09.238Z,22.27
2018-03-10T13:52:37.601Z,23.90
2018-03-10T13:55:06.389Z,24.30
2018-03-10T13:57:35.131Z,21.27
2018-03-10T14:00:03.491Z,23.37
2018-03-10T14:02:49.668Z,22.30
2018-03-10T14:05:18.104Z,23.63
2018-03-10T14:07:46.451Z,23.80
2018-03-10T14:10:14.830Z,25.87
2018-03-10T14:12:43.174Z,25.00
2018-03-10T14:15:11.927Z,23.13
2018-03-10T14:17:40.300Z,23.30
2018-03-10T14:20:08.646Z,23.40
2018-03-10T14:22:37.158Z,24.47
2018-03-10T14:25:05.499Z,24.20
2018-03-10T14:27:33.916Z,24.40
2018-03-10T14:30:02.358Z,23.00
2018-03-10T14:32:30.956Z,23.80
2018-03-10T14:34:59.446Z,23.10
2018-03-10T14:37:27.927Z,24.07
2018-03-10T14:39:56.339Z,25.40
2018-03-10T14:42:24.695Z,26.17
2018-03-10T14:44:53.059Z,24.67
2018-03-10T14:47:21.459Z,25.60
2018-03-10T14:49:49.785Z,28.10
2018-03-10T14:52:18.142Z,30.10
2018-03-10T14:54:46.878Z,31.57
2018-03-10T14:57:15.234Z,33.77
2018-03-10T14:59:43.685Z,38.30
2018-03-10T15:02:12.546Z,39.57
2018-03-10T15:04:40.907Z,44.30
2018-03-10T15:07:09.261Z,44.50
2018-03-10T15:09:37.624Z,43.43
2018-03-10T15:12:06.075Z,44.20
2018-03-10T15:14:34.423Z,46.57
2018-03-10T15:17:02.823Z,49.40
2018-03-10T15:19:31.203Z,50.77
2018-03-10T15:21:59.610Z,50.57
2018-03-10T15:24:28.457Z,56.43
2018-03-10T15:26:57.279Z,53.80
2018-03-10T15:29:25.722Z,49.80
2018-03-10T15:31:54.086Z,63.33
2018-03-10T15:34:22.478Z,60.87
2018-03-10T15:36:50.831Z,48.77
2018-03-10T15:39:19.239Z,55.87
2018-03-10T15:41:47.596Z,62.60
2018-03-10T15:44:15.975Z,56.50
2018-03-10T15:46:44.339Z,51.70
2018-03-10T15:49:12.713Z,52.90
2018-03-10T15:51:41.507Z,53.57
2018-03-10T15:54:09.863Z,55.87
2018-03-10T15:56:38.303Z,53.30
2018-03-10T15:59:06.689Z,52.60
2018-03-10T16:01:35.075Z,53.73
2018-03-10T16:04:03.457Z,56.73
2018-03-10T16:06:31.839Z,59.07
2018-03-10T16:09:00.188Z,54.80
2018-03-10T16:11:28.571Z,57.13
2018-03-10T16:13:56.929Z,54.60
2018-03-10T16:16:25.290Z,56.20
2018-03-10T16:18:54.124Z,58.97
2018-03-10T16:21:22.502Z,59.90
2018-03-10T16:23:50.867Z,58.27
2018-03-10T16:26:19.323Z,61.63
2018-03-10T16:28:47.731Z,58.20
2018-03-10T16:31:16.085Z,57.47
2018-03-10T16:33:44.742Z,57.00
2018-03-10T16:36:13.139Z,61.97
2018-03-10T16:38:41.905Z,58.93
2018-03-10T16:41:10.360Z,58.27
2018-03-10T16:43:38.768Z,56.03
2018-03-10T16:46:07.120Z,53.40
2018-03-10T16:48:35.516Z,53.87
2018-03-10T16:51:03.882Z,58.77
2018-03-10T16:53:32.340Z,53.37
2018-03-10T16:56:00.713Z,54.53
2018-03-10T16:58:29.122Z,56.50
2018-03-10T17:00:57.574Z,52.80
2018-03-10T17:03:25.926Z,50.80
2018-03-10T17:05:54.289Z,54.03
2018-03-10T17:08:23.045Z,52.87
2018-03-10T17:10:51.415Z,52.40
2018-03-10T17:13:19.776Z,49.80
2018-03-10T17:15:48.143Z,50.83
2018-03-10T17:18:16.511Z,49.10
2018-03-10T17:20:44.871Z,52.13
2018-03-10T17:23:13.724Z,55.00
2018-03-10T17:25:42.098Z,50.60
2018-03-10T17:28:10.457Z,53.87
2018-03-10T17:30:38.848Z,52.33
2018-03-10T17:33:07.231Z,54.80
2018-03-10T17:35:35.587Z,53.60
2018-03-10T17:38:03.964Z,53.60
2018-03-10T17:40:32.371Z,53.87
2018-03-10T17:43:00.824Z,55.27
2018-03-10T17:45:29.238Z,53.43
2018-03-10T17:47:57.619Z,57.27
2018-03-10T17:50:26.083Z,53.30
2018-03-10T17:52:54.470Z,54.23
2018-03-10T17:55:22.839Z,54.20
2018-03-10T17:57:51.188Z,53.33
2018-03-10T18:00:19.578Z,56.10
2018-03-10T18:02:48.020Z,53.07
2018-03-10T18:05:16.884Z,55.50
2018-03-10T18:07:45.232Z,55.30
2018-03-10T18:10:13.591Z,60.13
2018-03-10T18:12:41.951Z,57.43
2018-03-10T18:15:10.809Z,60.00
2018-03-10T18:17:39.187Z,60.13
2018-03-10T18:20:07.668Z,60.40
2018-03-10T18:22:36.028Z,63.80
2018-03-10T18:25:04.391Z,58.77
2018-03-10T18:27:32.779Z,60.83
2018-03-10T18:30:01.161Z,59.20
2018-03-10T18:32:29.527Z,57.50
2018-03-10T18:34:57.927Z,59.83
2018-03-10T18:37:26.287Z,58.80
2018-03-10T18:39:54.647Z,61.53
2018-03-10T18:43:37.822Z,63.73
2018-03-10T18:46:06.204Z,61.83
2018-03-10T18:48:34.575Z,66.17
2018-03-10T18:51:02.942Z,62.97
2018-03-10T18:53:31.305Z,63.57
2018-03-10T18:55:59.672Z,64.27
2018-03-10T19:00:48.388Z,60.07
2018-03-10T19:03:16.754Z,59.80
2018-03-10T19:05:45.112Z,59.67
2018-03-10T19:08:13.465Z,61.23
2018-03-10T19:10:41.848Z,60.10
2018-03-10T19:13:11.312Z,63.20
2018-03-10T19:15:39.716Z,61.97
2018-03-10T19:18:08.077Z,62.10
2018-03-10T19:20:36.537Z,64.03
2018-03-10T19:23:04.892Z,61.50
2018-03-10T19:25:33.252Z,64.77
2018-03-10T19:28:02.062Z,63.30
2018-03-10T19:30:30.481Z,63.80
2018-03-10T19:32:58.839Z,65.57
2018-03-10T19:35:27.231Z,69.47
2018-03-10T19:37:55.655Z,71.10
2018-03-10T19:40:23.975Z,72.70
2018-03-10T19:42:52.350Z,69.87
2018-03-10T19:45:20.720Z,66.50
2018-03-10T19:47:49.088Z,66.73
2018-03-10T19:50:17.500Z,68.57
2018-03-10T19:52:45.881Z,69.60
2018-03-10T19:55:14.249Z,69.20
2018-03-10T19:57:42.644Z,65.77
2018-03-10T20:00:11.128Z,64.80
2018-03-10T20:02:39.500Z,68.37
2018-03-10T20:05:07.991Z,62.23
2018-03-10T20:07:36.353Z,64.50
2018-03-10T20:10:04.835Z,64.70
2018-03-10T20:12:33.322Z,64.67
2018-03-10T20:15:01.717Z,67.43
2018-03-10T20:17:30.148Z,69.20
2018-03-10T20:19:58.496Z,66.63
2018-03-10T20:22:27.337Z,64.00
2018-03-10T20:24:55.695Z,64.17
2018-03-10T20:27:24.083Z,65.83
2018-03-10T20:29:52.439Z,63.07
2018-03-10T20:32:20.792Z,62.77
2018-03-10T20:34:49.151Z,59.77
2018-03-10T20:37:17.661Z,60.10
2018-03-10T20:39:46.510Z,59.83
2018-03-10T20:42:14.879Z,56.67
2018-03-10T20:44:43.237Z,60.60
2018-03-10T20:47:11.637Z,58.57
2018-03-10T20:49:40.046Z,56.40
2018-03-10T20:52:08.408Z,61.30
2018-03-10T20:54:36.797Z,57.30
2018-03-10T20:57:05.163Z,55.63
2018-03-10T20:59:33.540Z,58.37
2018-03-10T21:02:01.934Z,61.20
2018-03-10T21:04:30.275Z,56.67
2018-03-10T21:06:58.652Z,54.17
2018-03-10T21:09:27.007Z,53.10
2018-03-10T21:11:55.763Z,54.43
2018-03-10T21:14:24.118Z,52.80
2018-03-10T21:16:51.763Z,53.87
2018-03-10T21:19:20.119Z,54.87
2018-03-10T21:21:48.482Z,51.00
2018-03-10T21:24:17.253Z,53.50
2018-03-10T21:26:45.697Z,49.97
2018-03-10T21:29:14.115Z,52.23
2018-03-10T21:31:42.448Z,48.97
2018-03-10T21:34:10.799Z,49.17
2018-03-10T21:36:39.220Z,48.50
2018-03-10T21:39:07.575Z,46.13
2018-03-10T21:41:36.048Z,44.93
2018-03-10T21:44:04.412Z,44.87
2018-03-10T21:46:33.173Z,44.13
2018-03-10T21:49:01.528Z,43.90
2018-03-10T21:51:29.889Z,42.20
2018-03-10T21:53:58.242Z,40.43
2018-03-10T21:56:26.633Z,41.80
2018-03-10T21:58:54.995Z,42.13
2018-03-10T22:01:23.359Z,40.30
2018-03-10T22:03:52.113Z,39.17
2018-03-10T22:06:20.467Z,39.00
2018-03-10T22:08:48.917Z,40.57
2018-03-10T22:11:17.337Z,39.27
2018-03-10T22:13:46.608Z,39.83
2018-03-10T22:16:15.014Z,39.67
2018-03-10T22:18:43.395Z,40.60
2018-03-10T22:21:11.787Z,36.93
2018-03-10T22:23:40.143Z,39.30
2018-03-10T22:26:08.544Z,40.10
2018-03-10T22:28:36.916Z,38.00
2018-03-10T22:31:05.294Z,36.63
2018-03-10T22:33:33.668Z,36.23
2018-03-10T22:36:02.036Z,36.40
2018-03-10T22:38:31.532Z,36.87
2018-03-10T22:40:59.942Z,36.90
2018-03-10T22:43:28.292Z,36.13
2018-03-10T22:45:56.655Z,37.50
2018-03-10T22:48:25.075Z,36.50
2018-03-10T22:50:53.441Z,38.30
2018-03-10T22:53:21.833Z,38.27
2018-03-10T22:55:50.210Z,37.60
2018-03-10T22:58:18.594Z,38.53
2018-03-10T23:00:47.060Z,37.93
2018-03-10T23:03:15.417Z,37.87
2018-03-10T23:05:43.772Z,38.60
2018-03-10T23:08:12.585Z,39.47
2018-03-10T23:10:40.996Z,39.60
2018-03-10T23:13:09.371Z,37.13
2018-03-10T23:15:37.731Z,39.50
2018-03-10T23:18:06.134Z,36.10
2018-03-10T23:20:34.499Z,37.53
2018-03-10T23:23:02.884Z,36.93
2018-03-10T23:25:31.307Z,35.10
2018-03-10T23:27:59.644Z,35.63
2018-03-10T23:30:28.024Z,35.83
2018-03-10T23:32:56.399Z,36.23
2018-03-10T23:35:24.801Z,34.80
2018-03-10T23:37:53.161Z,33.30
2018-03-10T23:40:21.520Z,34.17
2018-03-10T23:42:49.919Z,32.60
2018-03-10T23:45:18.320Z,32.77
2018-03-10T23:47:46.679Z,30.60
2018-03-10T23:50:15.087Z,31.40
2018-03-10T23:52:43.555Z,29.70
2018-03-10T23:55:11.925Z,29.27
2018-03-10T23:57:40.287Z,29.13
